createdAt,value
2018-08-16T00:00:17.932Z,90.82
2018-08-16T00:02:47.310Z,90.54
2018-08-16T00:05:16.246Z,91.29
2018-08-16T00:07:45.689Z,91.19
2018-08-16T00:10:16.657Z,91.03
2018-08-16T00:12:46.954Z,91.22
2018-08-16T00:15:16.898Z,91.58
2018-08-16T00:17:45.952Z,92.23
2018-08-16T00:20:15.408Z,91.71
2018-08-16T00:22:44.729Z,92.54
2018-08-16T00:25:14.004Z,92.03
2018-08-16T00:27:43.291Z,92.86
2018-08-16T00:30:16.853Z,92.43
2018-08-16T00:32:45.953Z,92.71
2018-08-16T00:35:14.876Z,92.49
2018-08-16T00:37:43.929Z,93.23
2018-08-16T00:40:14.848Z,92.90
2018-08-16T00:42:43.817Z,93.92
2018-08-16T00:45:13.155Z,93.73
2018-08-16T00:47:42.415Z,94.41
2018-08-16T00:50:12.758Z,94.23
2018-08-16T00:52:41.492Z,94.50
2018-08-16T00:55:16.359Z,95.26
2018-08-16T00:57:51.237Z,95.01
2018-08-16T01:00:25.002Z,95.21
2018-08-16T01:02:58.241Z,95.56
2018-08-16T01:05:28.510Z,95.50
2018-08-16T01:07:58.914Z,95.98
2018-08-16T01:10:28.823Z,96.37
2018-08-16T01:12:59.135Z,96.11
2018-08-16T01:15:27.955Z,95.94
2018-08-16T01:17:57.088Z,96.60
2018-08-16T01:20:25.879Z,96.27
2018-08-16T01:22:54.739Z,96.82
2018-08-16T01:25:31.266Z,97.22
2018-08-16T01:28:00.349Z,97.19
2018-08-16T01:30:29.334Z,97.85
2018-08-16T01:32:58.108Z,97.42
2018-08-16T01:35:26.825Z,97.50
2018-08-16T01:37:55.539Z,97.30
2018-08-16T01:40:24.554Z,96.83
2018-08-16T01:42:53.291Z,97.28
2018-08-16T01:45:28.993Z,97.31
2018-08-16T01:47:57.732Z,97.63
2018-08-16T01:50:26.676Z,97.10
2018-08-16T01:52:55.745Z,98.03
2018-08-16T01:55:24.539Z,98.06
2018-08-16T01:57:53.336Z,98.64
2018-08-16T02:00:22.143Z,98.54
2018-08-16T02:02:51.126Z,98.96
2018-08-16T02:05:20.322Z,99.35
2018-08-16T02:07:49.044Z,98.98
2018-08-16T02:10:17.801Z,98.35
2018-08-16T02:12:46.778Z,98.41
2018-08-16T02:15:15.538Z,98.32
2018-08-16T02:17:44.631Z,98.78
2018-08-16T02:20:15.132Z,98.66
2018-08-16T02:22:44.986Z,99.25
2018-08-16T02:25:14.016Z,99.42
2018-08-16T02:27:42.779Z,99.33
2018-08-16T02:30:11.743Z,99.75
2018-08-16T02:32:40.633Z,99.74
2018-08-16T02:35:09.919Z,99.96
2018-08-16T02:37:39.178Z,99.89
2018-08-16T02:40:08.834Z,100.00
2018-08-16T02:42:38.153Z,99.82
2018-08-16T02:45:07.239Z,99.85
2018-08-16T02:47:36.326Z,100.00
2018-08-16T02:50:05.125Z,100.00
2018-08-16T02:52:33.888Z,99.79
2018-08-16T02:55:03.235Z,99.79
2018-08-16T02:57:32.390Z,99.98
2018-08-16T03:00:01.196Z,99.77
2018-08-16T03:02:30.281Z,100.00
2018-08-16T03:04:59.298Z,100.00
2018-08-16T03:07:28.341Z,100.00
2018-08-16T03:09:57.130Z,100.00
2018-08-16T03:12:26.716Z,100.00
2018-08-16T03:14:56.409Z,100.00
2018-08-16T03:17:25.597Z,100.00
2018-08-16T03:19:54.402Z,100.00
2018-08-16T03:22:23.231Z,100.00
2018-08-16T03:24:52.223Z,100.00
2018-08-16T03:27:22.750Z,100.00
2018-08-16T03:29:51.532Z,100.00
2018-08-16T03:32:20.955Z,100.00
2018-08-16T03:34:49.707Z,100.00
2018-08-16T03:37:18.527Z,100.00
2018-08-16T03:39:47.560Z,100.00
2018-08-16T03:42:16.317Z,100.00
2018-08-16T03:44:45.361Z,100.00
2018-08-16T03:47:14.649Z,100.00
2018-08-16T03:49:43.792Z,100.00
2018-08-16T03:52:12.811Z,100.00
2018-08-16T03:54:41.837Z,100.00
2018-08-16T03:57:10.850Z,100.00
2018-08-16T03:59:39.839Z,100.00
2018-08-16T04:02:08.875Z,100.00
2018-08-16T04:04:37.776Z,100.00
2018-08-16T04:07:07.090Z,100.00
2018-08-16T04:09:36.655Z,100.00
2018-08-16T04:12:06.535Z,100.00
2018-08-16T04:14:35.269Z,100.00
2018-08-16T04:17:04.447Z,100.00
2018-08-16T04:19:33.496Z,100.00
2018-08-16T04:22:02.791Z,100.00
2018-08-16T04:24:32.218Z,100.00
2018-08-16T04:27:01.741Z,100.00
2018-08-16T04:29:31.121Z,100.00
2018-08-16T04:32:00.155Z,100.00
2018-08-16T04:34:29.253Z,100.00
2018-08-16T04:36:58.220Z,100.00
2018-08-16T04:39:26.982Z,100.00
2018-08-16T04:41:57.145Z,100.00
2018-08-16T04:44:26.035Z,100.00
2018-08-16T04:46:55.041Z,100.00
2018-08-16T04:49:24.469Z,100.00
2018-08-16T04:51:54.309Z,100.00
2018-08-16T04:54:23.426Z,100.00
2018-08-16T04:56:52.602Z,100.00
2018-08-16T04:59:21.461Z,100.00
2018-08-16T05:01:50.868Z,100.00
2018-08-16T05:04:19.888Z,100.00
2018-08-16T05:06:49.314Z,100.00
2018-08-16T05:09:18.801Z,100.00
2018-08-16T05:11:48.405Z,100.00
2018-08-16T05:14:17.728Z,100.00
2018-08-16T05:16:46.938Z,100.00
2018-08-16T05:19:16.553Z,100.00
2018-08-16T05:21:45.543Z,100.00
2018-08-16T05:24:14.585Z,100.00
2018-08-16T05:26:43.706Z,100.00
2018-08-16T05:29:12.738Z,100.00
2018-08-16T05:31:41.606Z,100.00
2018-08-16T05:34:10.642Z,100.00
2018-08-16T05:36:39.404Z,100.00
2018-08-16T05:39:10.759Z,100.00
2018-08-16T05:41:39.943Z,100.00
2018-08-16T05:44:09.116Z,100.00
2018-08-16T05:46:37.949Z,100.00
2018-08-16T05:49:07.023Z,100.00
2018-08-16T05:51:35.778Z,100.00
2018-08-16T05:54:04.908Z,100.00
2018-08-16T05:56:33.910Z,100.00
2018-08-16T05:59:03.011Z,100.00
2018-08-16T06:01:32.717Z,100.00
2018-08-16T06:04:01.716Z,100.00
2018-08-16T06:06:30.698Z,100.00
2018-08-16T06:08:59.413Z,100.00
2018-08-16T06:11:28.498Z,100.00
2018-08-16T06:13:57.225Z,100.00
2018-08-16T06:16:25.981Z,100.00
2018-08-16T06:18:54.761Z,100.00
2018-08-16T06:21:23.469Z,100.00
2018-08-16T06:23:52.210Z,99.02
2018-08-16T06:26:21.263Z,99.27
2018-08-16T06:28:50.008Z,99.03
2018-08-16T06:31:19.084Z,97.81
2018-08-16T06:33:47.818Z,96.34
2018-08-16T06:36:16.681Z,95.77
2018-08-16T06:38:45.597Z,95.70
2018-08-16T06:41:14.309Z,94.31
2018-08-16T06:43:43.440Z,94.11
2018-08-16T06:46:12.185Z,92.22
2018-08-16T06:48:41.018Z,93.01
2018-08-16T06:51:10.317Z,93.16
2018-08-16T06:53:39.199Z,91.52
2018-08-16T06:56:10.549Z,91.42
2018-08-16T06:58:40.300Z,89.87
2018-08-16T07:01:09.785Z,88.33
2018-08-16T07:03:38.887Z,87.53
2018-08-16T07:06:08.056Z,86.72
2018-08-16T07:08:37.568Z,86.44
2018-08-16T07:11:06.586Z,86.63
2018-08-16T07:13:35.369Z,84.94
2018-08-16T07:16:04.119Z,83.92
2018-08-16T07:18:33.027Z,83.24
2018-08-16T07:21:01.797Z,82.57
2018-08-16T07:23:31.114Z,82.13
2018-08-16T07:26:00.181Z,81.97
2018-08-16T07:28:28.971Z,81.42
2018-08-16T07:30:58.119Z,80.19
2018-08-16T07:33:26.866Z,79.50
2018-08-16T07:35:55.976Z,79.68
2018-08-16T07:38:24.786Z,78.16
2018-08-16T07:40:53.859Z,78.76
2018-08-16T07:43:22.607Z,77.23
2018-08-16T07:45:51.768Z,76.75
2018-08-16T07:48:20.381Z,75.88
2018-08-16T07:50:49.414Z,75.52
2018-08-16T07:53:18.225Z,73.09
2018-08-16T07:55:46.994Z,72.03
2018-08-16T07:58:15.782Z,71.42
2018-08-16T08:00:44.529Z,72.58
2018-08-16T08:03:13.885Z,72.88
2018-08-16T08:05:42.651Z,72.54
2018-08-16T08:08:11.682Z,70.04
2018-08-16T08:10:40.531Z,68.06
2018-08-16T08:13:09.283Z,68.73
2018-08-16T08:15:38.105Z,69.68
2018-08-16T08:18:07.014Z,69.07
2018-08-16T08:20:36.493Z,67.56
2018-08-16T08:23:06.422Z,66.27
2018-08-16T08:25:35.410Z,66.77
2018-08-16T08:28:04.123Z,65.41
2018-08-16T08:30:33.231Z,64.29
2018-08-16T08:33:02.037Z,64.52
2018-08-16T08:35:31.103Z,65.09
2018-08-16T08:38:05.800Z,64.70
2018-08-16T08:40:34.789Z,63.95
2018-08-16T08:43:03.687Z,63.22
2018-08-16T08:45:32.431Z,63.33
2018-08-16T08:48:01.163Z,63.78
2018-08-16T08:50:30.401Z,63.74
2018-08-16T08:53:09.907Z,62.47
2018-08-16T08:55:49.712Z,60.10
2018-08-16T08:58:29.618Z,61.74
2018-08-16T09:00:58.748Z,60.66
2018-08-16T09:03:27.730Z,61.71
2018-08-16T09:05:56.844Z,60.67
2018-08-16T09:08:25.784Z,59.52
2018-08-16T09:11:11.029Z,58.31
2018-08-16T09:13:51.772Z,58.67
2018-08-16T09:16:24.816Z,58.84
2018-08-16T09:18:54.293Z,58.75
2018-08-16T09:21:23.050Z,58.01
2018-08-16T09:23:52.127Z,56.51
2018-08-16T09:26:26.165Z,56.46
2018-08-16T09:28:55.219Z,56.51
2018-08-16T09:31:35.093Z,56.82
2018-08-16T09:34:15.494Z,55.17
2018-08-16T09:36:44.595Z,54.27
2018-08-16T09:39:13.598Z,55.25
2018-08-16T09:41:42.934Z,53.48
2018-08-16T09:44:11.953Z,54.14
2018-08-16T09:46:54.610Z,54.99
2018-08-16T09:49:23.374Z,54.29
2018-08-16T09:51:52.136Z,53.85
2018-08-16T09:54:21.983Z,53.65
2018-08-16T09:56:51.362Z,53.86
2018-08-16T09:59:20.527Z,53.80
2018-08-16T10:01:49.348Z,52.72
2018-08-16T10:04:18.161Z,52.66
2018-08-16T10:06:47.167Z,51.97
2018-08-16T10:09:21.729Z,52.12
2018-08-16T10:11:50.547Z,52.16
2018-08-16T10:14:19.745Z,52.43
2018-08-16T10:16:48.906Z,52.33
2018-08-16T10:19:18.186Z,51.58
2018-08-16T10:21:47.192Z,50.71
2018-08-16T10:24:15.917Z,50.30
2018-08-16T10:26:44.964Z,50.39
2018-08-16T10:29:14.109Z,51.16
2018-08-16T10:31:43.210Z,50.74
2018-08-16T10:34:12.164Z,50.64
2018-08-16T10:36:41.293Z,50.07
2018-08-16T10:39:11.860Z,50.15
2018-08-16T10:41:41.198Z,50.17
2018-08-16T10:44:09.967Z,49.44
2018-08-16T10:46:39.015Z,49.47
2018-08-16T10:49:07.916Z,48.76
2018-08-16T10:51:36.970Z,47.65
2018-08-16T10:54:06.115Z,47.00
2018-08-16T10:56:34.823Z,45.38
2018-08-16T10:59:04.260Z,46.20
2018-08-16T11:01:33.060Z,45.97
2018-08-16T11:04:02.038Z,46.25
2018-08-16T11:06:31.109Z,45.41
2018-08-16T11:09:00.095Z,45.38
2018-08-16T11:11:28.899Z,44.49
2018-08-16T11:13:58.150Z,44.39
2018-08-16T11:16:27.350Z,45.71
2018-08-16T11:18:56.272Z,46.13
2018-08-16T11:21:25.245Z,45.15
2018-08-16T11:23:54.298Z,46.39
2018-08-16T11:26:23.748Z,46.10
2018-08-16T11:28:52.520Z,45.40
2018-08-16T11:31:21.642Z,45.80
2018-08-16T11:33:50.377Z,45.95
2018-08-16T11:36:19.620Z,45.36
2018-08-16T11:38:48.371Z,45.80
2018-08-16T11:41:17.096Z,45.37
2018-08-16T11:43:46.068Z,46.04
2018-08-16T11:46:15.164Z,45.73
2018-08-16T11:48:43.947Z,44.80
2018-08-16T11:51:12.658Z,46.26
2018-08-16T11:53:41.732Z,46.05
2018-08-16T11:56:10.818Z,46.34
2018-08-16T11:58:39.630Z,45.07
2018-08-16T12:01:08.890Z,45.32
2018-08-16T12:03:38.147Z,44.78
2018-08-16T12:06:07.046Z,45.75
2018-08-16T12:08:35.829Z,46.96
2018-08-16T12:11:04.643Z,46.64
2018-08-16T12:13:33.655Z,46.23
2018-08-16T12:16:02.946Z,46.04
2018-08-16T12:18:31.720Z,46.86
2018-08-16T12:21:00.538Z,45.59
2018-08-16T12:23:29.343Z,44.16
2018-08-16T12:25:58.336Z,45.40
2018-08-16T12:28:27.108Z,44.02
2018-08-16T12:30:55.910Z,43.76
2018-08-16T12:33:25.012Z,42.75
2018-08-16T12:36:57.923Z,42.15
2018-08-16T12:39:27.370Z,43.24
2018-08-16T12:41:56.492Z,42.32
2018-08-16T12:44:25.526Z,41.73
2018-08-16T12:46:54.482Z,41.55
2018-08-16T12:49:23.564Z,42.03
2018-08-16T12:51:52.567Z,41.53
2018-08-16T12:54:21.321Z,41.83
2018-08-16T12:56:50.042Z,42.19
2018-08-16T12:59:19.012Z,42.83
2018-08-16T13:01:48.335Z,44.96
2018-08-16T13:04:17.049Z,44.25
2018-08-16T13:06:46.035Z,44.77
2018-08-16T13:09:14.829Z,45.48
2018-08-16T13:11:43.618Z,45.03
2018-08-16T13:14:12.591Z,45.72
2018-08-16T13:16:41.813Z,45.27
2018-08-16T13:19:10.955Z,43.33
2018-08-16T13:21:39.600Z,44.10
2018-08-16T13:24:08.695Z,43.47
2018-08-16T13:26:38.070Z,42.96
2018-08-16T13:29:06.889Z,44.71
2018-08-16T13:31:36.165Z,44.42
2018-08-16T13:34:05.290Z,44.71
2018-08-16T13:36:35.241Z,43.60
2018-08-16T13:39:06.730Z,44.13
2018-08-16T13:41:35.793Z,43.93
2018-08-16T13:44:04.713Z,43.98
2018-08-16T13:46:33.444Z,43.50
2018-08-16T13:49:02.754Z,42.63
2018-08-16T13:51:31.650Z,42.36
2018-08-16T13:54:00.901Z,42.81
2018-08-16T13:56:30.943Z,42.05
2018-08-16T13:59:00.147Z,41.77
2018-08-16T14:01:29.345Z,41.64
2018-08-16T14:03:59.747Z,41.92
2018-08-16T14:06:31.684Z,42.24
2018-08-16T14:09:02.208Z,41.21
2018-08-16T14:11:33.135Z,41.22
2018-08-16T14:14:03.222Z,42.66
2018-08-16T14:16:33.781Z,43.82
2018-08-16T14:19:02.824Z,44.21
2018-08-16T14:21:33.414Z,44.42
2018-08-16T14:24:04.513Z,44.74
2018-08-16T14:26:33.338Z,42.59
2018-08-16T14:29:03.310Z,42.56
2018-08-16T14:31:32.767Z,43.59
2018-08-16T14:34:01.778Z,44.10
2018-08-16T14:36:30.879Z,43.54
2018-08-16T14:38:59.656Z,43.61
2018-08-16T14:41:29.389Z,44.15
2018-08-16T14:43:58.633Z,44.61
2018-08-16T14:46:27.685Z,43.50
2018-08-16T14:48:56.465Z,44.40
2018-08-16T14:51:28.013Z,44.82
2018-08-16T14:53:58.413Z,45.37
2018-08-16T14:56:27.480Z,46.34
2018-08-16T14:58:56.614Z,46.24
2018-08-16T15:01:25.655Z,45.84
2018-08-16T15:03:54.913Z,46.86
2018-08-16T15:06:23.749Z,45.72
2018-08-16T15:08:52.482Z,45.52
2018-08-16T15:11:21.598Z,46.17
2018-08-16T15:13:50.349Z,46.49
2018-08-16T15:16:19.361Z,46.54
2018-08-16T15:18:48.186Z,46.26
2018-08-16T15:21:17.564Z,46.75
2018-08-16T15:23:46.383Z,47.98
2018-08-16T15:26:16.283Z,47.62
2018-08-16T15:28:45.347Z,47.86
2018-08-16T15:31:14.434Z,48.06
2018-08-16T15:33:43.190Z,48.66
2018-08-16T15:36:12.598Z,48.75
2018-08-16T15:38:41.306Z,49.50
2018-08-16T15:41:10.154Z,49.54
2018-08-16T15:43:40.211Z,50.80
2018-08-16T15:46:09.091Z,50.91
2018-08-16T15:48:37.843Z,50.05
2018-08-16T15:51:07.023Z,50.84
2018-08-16T15:53:35.749Z,51.21
2018-08-16T15:56:04.528Z,53.27
2018-08-16T15:58:33.273Z,53.28
2018-08-16T16:01:02.248Z,53.52
2018-08-16T16:03:31.000Z,53.75
2018-08-16T16:06:00.141Z,53.56
2018-08-16T16:08:28.912Z,54.09
2018-08-16T16:10:57.689Z,54.66
2018-08-16T16:13:26.473Z,55.51
2018-08-16T16:15:55.188Z,55.29
2018-08-16T16:18:24.763Z,56.24
2018-08-16T16:20:53.842Z,56.52
2018-08-16T16:23:22.953Z,56.98
2018-08-16T16:25:51.990Z,56.59
2018-08-16T16:28:21.098Z,56.14
2018-08-16T16:30:49.955Z,56.56
2018-08-16T16:33:18.947Z,56.93
2018-08-16T16:35:48.241Z,56.95
2018-08-16T16:38:17.218Z,57.36
2018-08-16T16:40:46.195Z,55.18
2018-08-16T16:43:15.398Z,55.77
2018-08-16T16:45:44.365Z,56.00
2018-08-16T16:48:13.095Z,55.13
2018-08-16T16:50:41.835Z,55.11
2018-08-16T16:53:11.082Z,54.47
2018-08-16T16:55:40.743Z,54.42
2018-08-16T16:58:09.713Z,54.43
2018-08-16T17:00:38.750Z,53.43
2018-08-16T17:03:07.810Z,53.50
2018-08-16T17:05:36.791Z,53.65
2018-08-16T17:08:05.567Z,52.67
2018-08-16T17:10:34.367Z,53.02
2018-08-16T17:13:03.045Z,53.49
2018-08-16T17:15:31.834Z,52.36
2018-08-16T17:18:00.761Z,52.40
2018-08-16T17:20:29.712Z,52.83
2018-08-16T17:22:58.565Z,52.40
2018-08-16T17:25:27.265Z,51.41
2018-08-16T17:27:57.055Z,51.39
2018-08-16T17:30:26.442Z,52.22
2018-08-16T17:32:55.218Z,53.08
2018-08-16T17:35:25.030Z,53.50
2018-08-16T17:37:54.123Z,54.05
2018-08-16T17:40:23.325Z,54.28
2018-08-16T17:42:52.015Z,54.53
2018-08-16T17:45:20.725Z,54.21
2018-08-16T17:47:49.526Z,54.54
2018-08-16T17:50:18.862Z,54.91
2018-08-16T17:52:47.840Z,55.00
2018-08-16T17:55:17.144Z,55.01
2018-08-16T17:57:46.179Z,55.38
2018-08-16T18:00:15.805Z,55.61
2018-08-16T18:02:44.822Z,55.70
2018-08-16T18:05:13.548Z,56.04
2018-08-16T18:07:42.606Z,56.25
2018-08-16T18:10:11.371Z,56.44
2018-08-16T18:12:40.479Z,56.47
2018-08-16T18:15:10.741Z,57.14
2018-08-16T18:17:39.536Z,57.62
2018-08-16T18:20:08.920Z,57.61
2018-08-16T18:22:38.423Z,58.12
2018-08-16T18:25:08.258Z,58.13
2018-08-16T18:27:37.362Z,58.72
2018-08-16T18:30:07.579Z,58.27
2018-08-16T18:32:36.364Z,59.06
2018-08-16T18:35:05.528Z,58.90
2018-08-16T18:37:34.270Z,59.62
2018-08-16T18:40:03.000Z,59.43
2018-08-16T18:42:31.782Z,59.83
2018-08-16T18:45:01.043Z,60.16
2018-08-16T18:47:29.917Z,60.32
2018-08-16T18:49:58.702Z,60.54
2018-08-16T18:52:27.964Z,60.96
2018-08-16T18:54:57.053Z,61.42
2018-08-16T18:57:25.851Z,61.39
2018-08-16T18:59:54.966Z,62.23
2018-08-16T19:02:25.527Z,62.97
2018-08-16T19:04:54.978Z,67.14
2018-08-16T19:07:23.829Z,68.72
2018-08-16T19:09:52.570Z,70.62
2018-08-16T19:12:21.837Z,71.54
2018-08-16T19:14:50.550Z,73.42
2018-08-16T19:17:19.366Z,73.81
2018-08-16T19:19:48.090Z,75.21
2018-08-16T19:22:16.854Z,76.09
2018-08-16T19:24:45.694Z,76.53
2018-08-16T19:27:17.221Z,76.86
2018-08-16T19:29:58.628Z,77.40
2018-08-16T19:32:27.756Z,78.53
2018-08-16T19:34:56.821Z,78.78
2018-08-16T19:37:26.246Z,79.70
2018-08-16T19:39:55.000Z,79.58
2018-08-16T19:42:23.720Z,79.72
2018-08-16T19:44:52.610Z,80.39
2018-08-16T19:47:21.338Z,79.71
2018-08-16T19:49:50.365Z,79.20
2018-08-16T19:52:21.883Z,78.62
2018-08-16T19:54:51.098Z,77.68
2018-08-16T19:57:20.487Z,78.13
2018-08-16T19:59:49.241Z,77.47
2018-08-16T20:02:18.474Z,77.52
2018-08-16T20:04:47.703Z,77.76
2018-08-16T20:07:16.418Z,77.79
2018-08-16T20:09:45.563Z,77.37
2018-08-16T20:12:14.597Z,77.76
2018-08-16T20:14:43.308Z,78.02
2018-08-16T20:17:12.509Z,77.74
2018-08-16T20:19:41.288Z,77.94
2018-08-16T20:22:18.488Z,77.83
2018-08-16T20:24:47.928Z,78.32
2018-08-16T20:27:17.183Z,77.95
2018-08-16T20:29:47.706Z,77.58
2018-08-16T20:32:16.959Z,77.26
2018-08-16T20:34:45.842Z,77.50
2018-08-16T20:37:14.975Z,77.79
2018-08-16T20:39:43.693Z,77.42
2018-08-16T20:42:12.498Z,77.44
2018-08-16T20:44:41.462Z,77.83
2018-08-16T20:47:10.431Z,77.23
2018-08-16T20:49:39.436Z,77.42
2018-08-16T20:52:08.272Z,77.46
2018-08-16T20:54:37.090Z,77.36
2018-08-16T20:57:06.176Z,77.52
2018-08-16T20:59:35.842Z,77.86
2018-08-16T21:02:07.172Z,78.81
2018-08-16T21:04:37.041Z,78.68
2018-08-16T21:07:08.687Z,78.98
2018-08-16T21:09:37.907Z,79.32
2018-08-16T21:12:06.817Z,79.29
2018-08-16T21:14:35.889Z,78.66
2018-08-16T21:17:04.868Z,78.93
2018-08-16T21:19:33.648Z,78.87
2018-08-16T21:22:02.753Z,79.48
2018-08-16T21:24:34.553Z,79.55
2018-08-16T21:27:03.661Z,80.04
2018-08-16T21:29:33.140Z,80.44
2018-08-16T21:32:02.111Z,80.63
2018-08-16T21:34:31.278Z,80.90
2018-08-16T21:37:00.256Z,80.73
2018-08-16T21:39:29.130Z,80.93
2018-08-16T21:42:04.283Z,81.35
2018-08-16T21:44:33.734Z,81.22
2018-08-16T21:47:02.968Z,81.95
2018-08-16T21:49:33.129Z,81.94
2018-08-16T21:52:01.870Z,81.84
2018-08-16T21:54:40.676Z,81.82
2018-08-16T21:57:10.215Z,82.10
2018-08-16T21:59:39.545Z,81.58
2018-08-16T22:02:08.937Z,82.16
2018-08-16T22:04:39.503Z,82.22
2018-08-16T22:07:16.310Z,81.77
2018-08-16T22:09:45.591Z,81.94
2018-08-16T22:12:14.335Z,82.59
2018-08-16T22:14:43.451Z,82.43
2018-08-16T22:17:12.371Z,82.78
2018-08-16T22:19:41.583Z,82.56
2018-08-16T22:22:10.455Z,82.90
2018-08-16T22:24:39.670Z,82.77
2018-08-16T22:27:08.559Z,82.71
2018-08-16T22:29:37.763Z,83.59
2018-08-16T22:32:07.554Z,83.83
2018-08-16T22:34:36.842Z,83.21
2018-08-16T22:37:06.137Z,83.22
2018-08-16T22:39:34.920Z,83.53
2018-08-16T22:42:03.748Z,83.29
2018-08-16T22:44:34.451Z,83.23
2018-08-16T22:47:07.058Z,83.51
2018-08-16T22:49:40.667Z,83.95
2018-08-16T22:52:11.375Z,84.17
2018-08-16T22:54:41.913Z,83.62
2018-08-16T22:57:12.658Z,84.14
2018-08-16T22:59:43.460Z,84.05
2018-08-16T23:02:15.620Z,84.13
2018-08-16T23:04:46.112Z,83.81
2018-08-16T23:07:17.321Z,84.30
2018-08-16T23:09:46.278Z,84.13
2018-08-16T23:12:15.207Z,84.88
2018-08-16T23:14:44.397Z,85.06
2018-08-16T23:17:13.288Z,85.41
2018-08-16T23:19:42.245Z,85.33
2018-08-16T23:22:11.020Z,85.15
2018-08-16T23:24:40.251Z,85.16
2018-08-16T23:27:09.581Z,85.64
2018-08-16T23:29:38.480Z,85.92
2018-08-16T23:32:07.629Z,85.55
2018-08-16T23:34:36.753Z,86.01
2018-08-16T23:37:06.824Z,86.28
2018-08-16T23:39:36.330Z,86.70
2018-08-16T23:42:05.395Z,86.62
2018-08-16T23:44:34.178Z,86.85
2018-08-16T23:47:03.453Z,86.26
2018-08-16T23:49:32.433Z,86.71
2018-08-16T23:52:01.246Z,86.62
2018-08-16T23:54:30.082Z,86.69
2018-08-16T23:56:59.065Z,86.68
2018-08-16T23:59:27.850Z,86.17
